sensor_id;sensor_type;location;lat;lon;timestamp;temperature;humidity
41720;DHT22;27405;53.316;-6.294;2022-11-30T00:00:54;7.00;99.90
41720;DHT22;27405;53.316;-6.294;2022-11-30T00:03:20;6.90;99.90
41720;DHT22;27405;53.316;-6.294;2022-11-30T00:05:46;6.90;99.90
41720;DHT22;27405;53.316;-6.294;2022-11-30T00:08:12;6.90;99.90
41720;DHT22;27405;53.316;-6.294;2022-11-30T00:10:38;6.90;99.90
41720;DHT22;27405;53.316;-6.294;2022-11-30T00:13:05;7.00;99.90
41720;DHT22;27405;53.316;-6.294;2022-11-30T00:15:31;7.00;99.90
41720;DHT22;27405;53.316;-6.294;2022-11-30T00:17:57;6.90;99.90
41720;DHT22;27405;53.316;-6.294;2022-11-30T00:20:24;7.00;99.90
41720;DHT22;27405;53.316;-6.294;2022-11-30T00:22:50;7.00;99.90
41720;DHT22;27405;53.316;-6.294;2022-11-30T00:25:16;7.00;99.90
41720;DHT22;27405;53.316;-6.294;2022-11-30T00:27:42;7.00;99.90
41720;DHT22;27405;53.316;-6.294;2022-11-30T00:30:08;7.00;99.90
41720;DHT22;27405;53.316;-6.294;2022-11-30T00:32:34;7.00;99.90
41720;DHT22;27405;53.316;-6.294;2022-11-30T00:34:59;7.00;99.90
41720;DHT22;27405;53.316;-6.294;2022-11-30T00:37:25;7.00;99.90
41720;DHT22;27405;53.316;-6.294;2022-11-30T00:39:51;7.00;99.90
41720;DHT22;27405;53.316;-6.294;2022-11-30T00:42:16;7.00;99.90
41720;DHT22;27405;53.316;-6.294;2022-11-30T00:44:42;7.00;99.90
41720;DHT22;27405;53.316;-6.294;2022-11-30T00:47:08;7.00;99.90
41720;DHT22;27405;53.316;-6.294;2022-11-30T00:49:34;7.00;99.90
41720;DHT22;27405;53.316;-6.294;2022-11-30T00:52:00;7.10;99.90
41720;DHT22;27405;53.316;-6.294;2022-11-30T00:54:26;7.00;99.90
41720;DHT22;27405;53.316;-6.294;2022-11-30T00:56:51;7.00;99.90
41720;DHT22;27405;53.316;-6.294;2022-11-30T00:59:17;7.00;99.90
41720;DHT22;27405;53.316;-6.294;2022-11-30T01:01:43;7.00;99.90
41720;DHT22;27405;53.316;-6.294;2022-11-30T01:04:09;6.90;99.90
41720;DHT22;27405;53.316;-6.294;2022-11-30T01:06:36;6.90;99.90
41720;DHT22;27405;53.316;-6.294;2022-11-30T01:09:01;6.90;99.90
41720;DHT22;27405;53.316;-6.294;2022-11-30T01:11:28;6.90;99.90
41720;DHT22;27405;53.316;-6.294;2022-11-30T01:13:56;6.80;99.90
41720;DHT22;27405;53.316;-6.294;2022-11-30T01:16:28;6.80;99.90
41720;DHT22;27405;53.316;-6.294;2022-11-30T01:18:55;6.70;99.90
41720;DHT22;27405;53.316;-6.294;2022-11-30T01:21:23;6.70;99.90
41720;DHT22;27405;53.316;-6.294;2022-11-30T01:23:49;6.70;99.90
41720;DHT22;27405;53.316;-6.294;2022-11-30T01:26:15;6.60;99.90
41720;DHT22;27405;53.316;-6.294;2022-11-30T01:28:42;6.60;99.90
41720;DHT22;27405;53.316;-6.294;2022-11-30T01:31:12;6.50;99.90
41720;DHT22;27405;53.316;-6.294;2022-11-30T01:33:39;6.50;99.90
41720;DHT22;27405;53.316;-6.294;2022-11-30T01:36:09;6.50;99.90
41720;DHT22;27405;53.316;-6.294;2022-11-30T01:38:38;6.40;99.90
41720;DHT22;27405;53.316;-6.294;2022-11-30T01:41:04;6.40;99.90
41720;DHT22;27405;53.316;-6.294;2022-11-30T01:43:43;6.30;99.90
41720;DHT22;27405;53.316;-6.294;2022-11-30T01:46:33;6.30;99.90
41720;DHT22;27405;53.316;-6.294;2022-11-30T01:49:12;6.20;99.90
41720;DHT22;27405;53.316;-6.294;2022-11-30T01:51:45;6.20;99.90
41720;DHT22;27405;53.316;-6.294;2022-11-30T01:54:14;6.20;99.90
41720;DHT22;27405;53.316;-6.294;2022-11-30T01:56:44;6.10;99.90
41720;DHT22;27405;53.316;-6.294;2022-11-30T01:59:12;6.10;99.90
41720;DHT22;27405;53.316;-6.294;2022-11-30T02:01:38;6.10;99.90
41720;DHT22;27405;53.316;-6.294;2022-11-30T02:04:11;6.00;99.90
41720;DHT22;27405;53.316;-6.294;2022-11-30T02:06:39;6.00;99.90
41720;DHT22;27405;53.316;-6.294;2022-11-30T02:09:04;6.00;99.90
41720;DHT22;27405;53.316;-6.294;2022-11-30T02:11:30;6.00;99.90
41720;DHT22;27405;53.316;-6.294;2022-11-30T02:21:58;5.90;99.90
41720;DHT22;27405;53.316;-6.294;2022-11-30T02:30:30;5.90;99.90
41720;DHT22;27405;53.316;-6.294;2022-11-30T02:33:08;5.80;99.90
41720;DHT22;27405;53.316;-6.294;2022-11-30T02:35:38;5.80;99.90
41720;DHT22;27405;53.316;-6.294;2022-11-30T02:38:05;5.80;99.90
41720;DHT22;27405;53.316;-6.294;2022-11-30T02:40:31;5.80;99.90
41720;DHT22;27405;53.316;-6.294;2022-11-30T02:42:58;5.80;99.90
41720;DHT22;27405;53.316;-6.294;2022-11-30T02:51:12;5.80;99.90
41720;DHT22;27405;53.316;-6.294;2022-11-30T02:53:42;5.80;99.90
41720;DHT22;27405;53.316;-6.294;2022-11-30T02:56:08;5.80;99.90
41720;DHT22;27405;53.316;-6.294;2022-11-30T02:58:34;5.80;99.90
41720;DHT22;27405;53.316;-6.294;2022-11-30T03:01:00;5.80;99.90
41720;DHT22;27405;53.316;-6.294;2022-11-30T03:03:25;5.80;99.90
41720;DHT22;27405;53.316;-6.294;2022-11-30T03:05:51;5.80;99.90
41720;DHT22;27405;53.316;-6.294;2022-11-30T03:08:17;5.70;99.90
41720;DHT22;27405;53.316;-6.294;2022-11-30T03:10:42;5.70;99.90
41720;DHT22;27405;53.316;-6.294;2022-11-30T03:13:08;5.70;99.90
41720;DHT22;27405;53.316;-6.294;2022-11-30T03:15:34;5.70;99.90
41720;DHT22;27405;53.316;-6.294;2022-11-30T03:18:04;5.70;99.90
41720;DHT22;27405;53.316;-6.294;2022-11-30T03:20:30;5.80;99.90
41720;DHT22;27405;53.316;-6.294;2022-11-30T03:23:00;5.70;99.90
41720;DHT22;27405;53.316;-6.294;2022-11-30T03:25:27;5.80;99.90
41720;DHT22;27405;53.316;-6.294;2022-11-30T03:27:52;5.80;99.90
41720;DHT22;27405;53.316;-6.294;2022-11-30T03:30:18;5.80;99.90
41720;DHT22;27405;53.316;-6.294;2022-11-30T03:32:44;5.90;99.90
41720;DHT22;27405;53.316;-6.294;2022-11-30T03:35:09;6.10;99.90
41720;DHT22;27405;53.316;-6.294;2022-11-30T03:37:35;6.20;99.90
41720;DHT22;27405;53.316;-6.294;2022-11-30T03:40:01;6.30;99.90
41720;DHT22;27405;53.316;-6.294;2022-11-30T03:42:26;6.30;99.90
41720;DHT22;27405;53.316;-6.294;2022-11-30T03:44:52;6.50;99.90
41720;DHT22;27405;53.316;-6.294;2022-11-30T03:47:18;6.60;99.90
41720;DHT22;27405;53.316;-6.294;2022-11-30T03:49:43;6.80;99.90
41720;DHT22;27405;53.316;-6.294;2022-11-30T03:52:09;7.00;99.90
41720;DHT22;27405;53.316;-6.294;2022-11-30T03:54:35;7.10;99.90
41720;DHT22;27405;53.316;-6.294;2022-11-30T03:57:00;7.30;99.90
41720;DHT22;27405;53.316;-6.294;2022-11-30T03:59:26;7.30;99.90
41720;DHT22;27405;53.316;-6.294;2022-11-30T04:01:51;7.40;99.90
41720;DHT22;27405;53.316;-6.294;2022-11-30T04:04:17;7.40;99.90
41720;DHT22;27405;53.316;-6.294;2022-11-30T04:06:43;7.40;99.90
41720;DHT22;27405;53.316;-6.294;2022-11-30T04:09:08;7.40;99.90
41720;DHT22;27405;53.316;-6.294;2022-11-30T04:11:34;7.40;99.90
41720;DHT22;27405;53.316;-6.294;2022-11-30T04:14:00;7.40;99.90
41720;DHT22;27405;53.316;-6.294;2022-11-30T04:16:26;7.40;99.90
41720;DHT22;27405;53.316;-6.294;2022-11-30T04:18:51;7.40;99.90
41720;DHT22;27405;53.316;-6.294;2022-11-30T04:21:17;7.40;99.90
41720;DHT22;27405;53.316;-6.294;2022-11-30T04:23:43;7.30;99.90
41720;DHT22;27405;53.316;-6.294;2022-11-30T04:26:14;7.30;99.90
41720;DHT22;27405;53.316;-6.294;2022-11-30T04:28:40;7.30;99.90
41720;DHT22;27405;53.316;-6.294;2022-11-30T04:31:07;7.30;99.90
41720;DHT22;27405;53.316;-6.294;2022-11-30T04:33:33;7.30;99.90
41720;DHT22;27405;53.316;-6.294;2022-11-30T04:36:00;7.40;99.90
41720;DHT22;27405;53.316;-6.294;2022-11-30T04:38:27;7.30;99.90
41720;DHT22;27405;53.316;-6.294;2022-11-30T04:40:53;7.40;99.90
41720;DHT22;27405;53.316;-6.294;2022-11-30T04:43:19;7.50;99.90
41720;DHT22;27405;53.316;-6.294;2022-11-30T04:45:46;7.50;99.90
41720;DHT22;27405;53.316;-6.294;2022-11-30T04:48:13;7.50;99.90
41720;DHT22;27405;53.316;-6.294;2022-11-30T04:50:38;7.40;99.90
41720;DHT22;27405;53.316;-6.294;2022-11-30T04:53:05;7.40;99.90
41720;DHT22;27405;53.316;-6.294;2022-11-30T04:55:31;7.40;99.90
41720;DHT22;27405;53.316;-6.294;2022-11-30T04:57:56;7.40;99.90
41720;DHT22;27405;53.316;-6.294;2022-11-30T05:00:22;7.40;99.90
41720;DHT22;27405;53.316;-6.294;2022-11-30T05:02:48;7.30;99.90
41720;DHT22;27405;53.316;-6.294;2022-11-30T05:05:14;7.30;99.90
41720;DHT22;27405;53.316;-6.294;2022-11-30T05:07:39;7.30;99.90
41720;DHT22;27405;53.316;-6.294;2022-11-30T05:10:06;7.30;99.90
41720;DHT22;27405;53.316;-6.294;2022-11-30T05:12:32;7.30;99.90
41720;DHT22;27405;53.316;-6.294;2022-11-30T05:14:58;7.30;99.90
41720;DHT22;27405;53.316;-6.294;2022-11-30T05:17:24;7.30;99.90
41720;DHT22;27405;53.316;-6.294;2022-11-30T05:19:50;7.30;99.90
41720;DHT22;27405;53.316;-6.294;2022-11-30T05:22:15;7.30;99.90
41720;DHT22;27405;53.316;-6.294;2022-11-30T05:24:41;7.30;99.90
41720;DHT22;27405;53.316;-6.294;2022-11-30T05:27:07;7.30;99.90
41720;DHT22;27405;53.316;-6.294;2022-11-30T05:29:32;7.30;99.90
41720;DHT22;27405;53.316;-6.294;2022-11-30T05:32:00;7.30;99.90
41720;DHT22;27405;53.316;-6.294;2022-11-30T05:34:26;7.30;99.90
41720;DHT22;27405;53.316;-6.294;2022-11-30T05:36:52;7.30;99.90
41720;DHT22;27405;53.316;-6.294;2022-11-30T05:39:18;7.30;99.90
41720;DHT22;27405;53.316;-6.294;2022-11-30T05:41:44;7.30;99.90
41720;DHT22;27405;53.316;-6.294;2022-11-30T05:44:09;7.30;99.90
41720;DHT22;27405;53.316;-6.294;2022-11-30T05:46:36;7.30;99.90
41720;DHT22;27405;53.316;-6.294;2022-11-30T05:49:01;7.30;99.90
41720;DHT22;27405;53.316;-6.294;2022-11-30T05:51:27;7.30;99.90
41720;DHT22;27405;53.316;-6.294;2022-11-30T05:53:53;7.20;99.90
41720;DHT22;27405;53.316;-6.294;2022-11-30T05:56:20;7.30;99.90
41720;DHT22;27405;53.316;-6.294;2022-11-30T05:58:46;7.30;99.90
41720;DHT22;27405;53.316;-6.294;2022-11-30T06:01:20;7.20;99.90
41720;DHT22;27405;53.316;-6.294;2022-11-30T06:03:47;7.20;99.90
41720;DHT22;27405;53.316;-6.294;2022-11-30T06:06:13;7.20;99.90
41720;DHT22;27405;53.316;-6.294;2022-11-30T06:08:38;7.20;99.90
41720;DHT22;27405;53.316;-6.294;2022-11-30T06:11:04;7.20;99.90
41720;DHT22;27405;53.316;-6.294;2022-11-30T06:13:30;7.30;99.90
41720;DHT22;27405;53.316;-6.294;2022-11-30T06:16:01;7.30;99.90
41720;DHT22;27405;53.316;-6.294;2022-11-30T06:18:27;7.30;99.90
41720;DHT22;27405;53.316;-6.294;2022-11-30T06:20:53;7.40;99.90
41720;DHT22;27405;53.316;-6.294;2022-11-30T06:23:19;7.40;99.90
41720;DHT22;27405;53.316;-6.294;2022-11-30T06:25:44;7.60;99.90
41720;DHT22;27405;53.316;-6.294;2022-11-30T06:28:10;7.60;99.90
41720;DHT22;27405;53.316;-6.294;2022-11-30T06:30:36;7.70;99.90
41720;DHT22;27405;53.316;-6.294;2022-11-30T06:33:02;7.80;99.90
41720;DHT22;27405;53.316;-6.294;2022-11-30T06:35:28;7.80;99.90
41720;DHT22;27405;53.316;-6.294;2022-11-30T06:37:54;7.90;99.90
41720;DHT22;27405;53.316;-6.294;2022-11-30T06:40:21;8.00;99.90
41720;DHT22;27405;53.316;-6.294;2022-11-30T06:42:46;8.00;99.90
41720;DHT22;27405;53.316;-6.294;2022-11-30T06:45:12;8.00;99.90
41720;DHT22;27405;53.316;-6.294;2022-11-30T06:47:37;8.10;99.90
41720;DHT22;27405;53.316;-6.294;2022-11-30T06:50:04;8.00;99.90
41720;DHT22;27405;53.316;-6.294;2022-11-30T06:52:30;8.00;99.90
41720;DHT22;27405;53.316;-6.294;2022-11-30T06:54:56;7.90;99.90
41720;DHT22;27405;53.316;-6.294;2022-11-30T06:57:26;7.80;99.90
41720;DHT22;27405;53.316;-6.294;2022-11-30T06:59:52;7.70;99.90
41720;DHT22;27405;53.316;-6.294;2022-11-30T07:02:18;7.70;99.90
41720;DHT22;27405;53.316;-6.294;2022-11-30T07:04:44;7.70;99.90
41720;DHT22;27405;53.316;-6.294;2022-11-30T07:07:09;7.60;99.90
41720;DHT22;27405;53.316;-6.294;2022-11-30T07:09:35;7.50;99.90
41720;DHT22;27405;53.316;-6.294;2022-11-30T07:12:01;7.50;99.90
41720;DHT22;27405;53.316;-6.294;2022-11-30T07:14:27;7.50;99.90
41720;DHT22;27405;53.316;-6.294;2022-11-30T07:16:54;7.50;99.90
41720;DHT22;27405;53.316;-6.294;2022-11-30T07:19:19;7.50;99.90
41720;DHT22;27405;53.316;-6.294;2022-11-30T07:21:45;7.50;99.90
41720;DHT22;27405;53.316;-6.294;2022-11-30T07:24:11;7.50;99.90
41720;DHT22;27405;53.316;-6.294;2022-11-30T07:26:57;7.40;99.90
41720;DHT22;27405;53.316;-6.294;2022-11-30T07:29:23;7.40;99.90
41720;DHT22;27405;53.316;-6.294;2022-11-30T07:31:50;7.40;99.90
41720;DHT22;27405;53.316;-6.294;2022-11-30T07:34:16;7.40;99.90
41720;DHT22;27405;53.316;-6.294;2022-11-30T07:36:43;7.40;99.90
41720;DHT22;27405;53.316;-6.294;2022-11-30T07:39:09;7.30;99.90
41720;DHT22;27405;53.316;-6.294;2022-11-30T07:41:34;7.30;99.90
41720;DHT22;27405;53.316;-6.294;2022-11-30T07:44:02;7.30;99.90
41720;DHT22;27405;53.316;-6.294;2022-11-30T07:46:28;7.30;99.90
41720;DHT22;27405;53.316;-6.294;2022-11-30T07:48:53;7.30;99.90
41720;DHT22;27405;53.316;-6.294;2022-11-30T07:51:20;7.30;99.90
41720;DHT22;27405;53.316;-6.294;2022-11-30T07:53:47;7.40;99.90
41720;DHT22;27405;53.316;-6.294;2022-11-30T07:56:15;7.40;99.90
41720;DHT22;27405;53.316;-6.294;2022-11-30T07:58:41;7.50;99.90
41720;DHT22;27405;53.316;-6.294;2022-11-30T08:01:10;7.50;99.90
41720;DHT22;27405;53.316;-6.294;2022-11-30T08:03:36;7.50;99.90
41720;DHT22;27405;53.316;-6.294;2022-11-30T08:06:13;7.50;99.90
41720;DHT22;27405;53.316;-6.294;2022-11-30T08:08:41;7.50;99.90
41720;DHT22;27405;53.316;-6.294;2022-11-30T08:11:10;7.50;99.90
41720;DHT22;27405;53.316;-6.294;2022-11-30T08:13:37;7.50;99.90
41720;DHT22;27405;53.316;-6.294;2022-11-30T08:16:04;7.50;99.90
41720;DHT22;27405;53.316;-6.294;2022-11-30T08:18:31;7.50;99.90
41720;DHT22;27405;53.316;-6.294;2022-11-30T08:21:02;7.50;99.90
41720;DHT22;27405;53.316;-6.294;2022-11-30T08:23:29;7.60;99.90
41720;DHT22;27405;53.316;-6.294;2022-11-30T08:25:54;7.60;99.90
41720;DHT22;27405;53.316;-6.294;2022-11-30T08:28:20;7.60;99.90
41720;DHT22;27405;53.316;-6.294;2022-11-30T08:30:46;7.70;99.90
41720;DHT22;27405;53.316;-6.294;2022-11-30T08:33:12;7.70;99.90
41720;DHT22;27405;53.316;-6.294;2022-11-30T08:35:38;7.70;99.90
41720;DHT22;27405;53.316;-6.294;2022-11-30T08:38:03;7.80;99.90
41720;DHT22;27405;53.316;-6.294;2022-11-30T08:40:29;7.90;99.90
41720;DHT22;27405;53.316;-6.294;2022-11-30T08:42:57;7.90;99.90
41720;DHT22;27405;53.316;-6.294;2022-11-30T08:45:22;8.00;99.90
41720;DHT22;27405;53.316;-6.294;2022-11-30T08:47:48;8.00;99.90
41720;DHT22;27405;53.316;-6.294;2022-11-30T08:50:14;8.10;99.90
41720;DHT22;27405;53.316;-6.294;2022-11-30T08:52:39;8.10;99.90
41720;DHT22;27405;53.316;-6.294;2022-11-30T08:55:05;8.20;99.90
41720;DHT22;27405;53.316;-6.294;2022-11-30T08:57:32;8.30;99.90
41720;DHT22;27405;53.316;-6.294;2022-11-30T08:59:58;8.40;99.90
41720;DHT22;27405;53.316;-6.294;2022-11-30T09:02:23;8.40;99.90
41720;DHT22;27405;53.316;-6.294;2022-11-30T09:04:49;8.50;99.90
41720;DHT22;27405;53.316;-6.294;2022-11-30T09:07:16;8.60;99.90
41720;DHT22;27405;53.316;-6.294;2022-11-30T09:09:42;8.60;99.90
41720;DHT22;27405;53.316;-6.294;2022-11-30T09:12:07;8.70;99.90
41720;DHT22;27405;53.316;-6.294;2022-11-30T09:14:33;8.70;99.90
41720;DHT22;27405;53.316;-6.294;2022-11-30T09:16:59;8.80;99.90
41720;DHT22;27405;53.316;-6.294;2022-11-30T09:19:25;8.80;99.90
41720;DHT22;27405;53.316;-6.294;2022-11-30T09:21:50;8.90;99.90
41720;DHT22;27405;53.316;-6.294;2022-11-30T09:24:16;9.00;99.90
41720;DHT22;27405;53.316;-6.294;2022-11-30T09:26:41;9.00;99.90
41720;DHT22;27405;53.316;-6.294;2022-11-30T09:29:07;9.10;99.90
41720;DHT22;27405;53.316;-6.294;2022-11-30T09:31:33;9.10;99.90
41720;DHT22;27405;53.316;-6.294;2022-11-30T09:33:58;9.20;99.90
41720;DHT22;27405;53.316;-6.294;2022-11-30T09:36:25;9.30;99.90
41720;DHT22;27405;53.316;-6.294;2022-11-30T09:38:52;9.30;99.90
41720;DHT22;27405;53.316;-6.294;2022-11-30T09:44:50;9.40;99.90
41720;DHT22;27405;53.316;-6.294;2022-11-30T09:46:49;9.50;99.90
41720;DHT22;27405;53.316;-6.294;2022-11-30T09:49:33;9.50;99.90
41720;DHT22;27405;53.316;-6.294;2022-11-30T09:52:03;9.60;99.90
41720;DHT22;27405;53.316;-6.294;2022-11-30T09:54:37;9.70;99.90
41720;DHT22;27405;53.316;-6.294;2022-11-30T10:00:03;9.70;99.90
41720;DHT22;27405;53.316;-6.294;2022-11-30T10:02:31;9.80;99.90
41720;DHT22;27405;53.316;-6.294;2022-11-30T10:04:58;9.80;99.90
41720;DHT22;27405;53.316;-6.294;2022-11-30T10:07:40;9.80;99.90
41720;DHT22;27405;53.316;-6.294;2022-11-30T10:12:43;9.90;99.90
41720;DHT22;27405;53.316;-6.294;2022-11-30T10:18:18;10.00;99.90
41720;DHT22;27405;53.316;-6.294;2022-11-30T10:26:40;10.10;99.90
41720;DHT22;27405;53.316;-6.294;2022-11-30T10:29:17;10.10;99.90
41720;DHT22;27405;53.316;-6.294;2022-11-30T10:31:43;10.10;99.90
41720;DHT22;27405;53.316;-6.294;2022-11-30T10:34:31;10.10;99.90
41720;DHT22;27405;53.316;-6.294;2022-11-30T10:37:08;10.20;99.90
41720;DHT22;27405;53.316;-6.294;2022-11-30T10:39:57;10.20;99.90
41720;DHT22;27405;53.316;-6.294;2022-11-30T10:45:14;10.30;99.90
41720;DHT22;27405;53.316;-6.294;2022-11-30T10:48:05;10.30;99.90
41720;DHT22;27405;53.316;-6.294;2022-11-30T10:50:34;10.40;99.90
41720;DHT22;27405;53.316;-6.294;2022-11-30T10:53:00;10.40;99.90
41720;DHT22;27405;53.316;-6.294;2022-11-30T10:55:45;10.40;99.90
41720;DHT22;27405;53.316;-6.294;2022-11-30T10:58:22;10.40;99.90
41720;DHT22;27405;53.316;-6.294;2022-11-30T11:01:02;10.50;99.90
41720;DHT22;27405;53.316;-6.294;2022-11-30T11:03:28;10.50;99.90
41720;DHT22;27405;53.316;-6.294;2022-11-30T11:06:15;10.50;99.90
41720;DHT22;27405;53.316;-6.294;2022-11-30T11:08:44;10.60;99.90
41720;DHT22;27405;53.316;-6.294;2022-11-30T11:14:19;10.60;99.90
41720;DHT22;27405;53.316;-6.294;2022-11-30T11:19:46;10.70;99.90
41720;DHT22;27405;53.316;-6.294;2022-11-30T11:24:41;10.70;99.90
41720;DHT22;27405;53.316;-6.294;2022-11-30T11:35:42;10.80;99.90
41720;DHT22;27405;53.316;-6.294;2022-11-30T11:38:31;10.90;99.90
41720;DHT22;27405;53.316;-6.294;2022-11-30T11:41:22;10.90;99.90
41720;DHT22;27405;53.316;-6.294;2022-11-30T11:44:05;10.90;99.90
41720;DHT22;27405;53.316;-6.294;2022-11-30T11:47:01;10.90;99.90
41720;DHT22;27405;53.316;-6.294;2022-11-30T11:49:33;10.90;99.90
41720;DHT22;27405;53.316;-6.294;2022-11-30T11:52:14;11.00;99.90
41720;DHT22;27405;53.316;-6.294;2022-11-30T11:54:48;11.00;99.90
41720;DHT22;27405;53.316;-6.294;2022-11-30T11:57:16;11.00;99.90
41720;DHT22;27405;53.316;-6.294;2022-11-30T12:11:12;10.90;99.90
41720;DHT22;27405;53.316;-6.294;2022-11-30T12:13:41;10.90;99.90
41720;DHT22;27405;53.316;-6.294;2022-11-30T12:19:12;10.90;99.90
41720;DHT22;27405;53.316;-6.294;2022-11-30T12:38:09;11.20;99.90
41720;DHT22;27405;53.316;-6.294;2022-11-30T12:46:02;11.40;99.90
41720;DHT22;27405;53.316;-6.294;2022-11-30T13:00:10;11.50;99.90
41720;DHT22;27405;53.316;-6.294;2022-11-30T13:05:14;11.50;99.90
41720;DHT22;27405;53.316;-6.294;2022-11-30T13:07:45;11.60;99.90
41720;DHT22;27405;53.316;-6.294;2022-11-30T13:13:01;11.70;99.90
41720;DHT22;27405;53.316;-6.294;2022-11-30T13:15:32;11.70;99.90
41720;DHT22;27405;53.316;-6.294;2022-11-30T13:17:59;11.80;99.90
41720;DHT22;27405;53.316;-6.294;2022-11-30T13:26:05;11.90;99.90
41720;DHT22;27405;53.316;-6.294;2022-11-30T13:31:27;12.00;99.90
41720;DHT22;27405;53.316;-6.294;2022-11-30T13:36:41;12.00;99.90
41720;DHT22;27405;53.316;-6.294;2022-11-30T13:39:28;12.10;99.90
41720;DHT22;27405;53.316;-6.294;2022-11-30T13:46:59;12.00;99.90
41720;DHT22;27405;53.316;-6.294;2022-11-30T13:49:29;12.00;99.90
41720;DHT22;27405;53.316;-6.294;2022-11-30T13:51:55;11.90;99.90
41720;DHT22;27405;53.316;-6.294;2022-11-30T13:57:17;11.90;99.90
41720;DHT22;27405;53.316;-6.294;2022-11-30T13:59:49;11.90;99.90
41720;DHT22;27405;53.316;-6.294;2022-11-30T14:10:38;11.90;99.90
41720;DHT22;27405;53.316;-6.294;2022-11-30T14:20:40;11.90;99.90
41720;DHT22;27405;53.316;-6.294;2022-11-30T14:25:58;11.90;99.90
41720;DHT22;27405;53.316;-6.294;2022-11-30T14:31:16;11.80;99.90
41720;DHT22;27405;53.316;-6.294;2022-11-30T14:36:12;11.70;99.90
41720;DHT22;27405;53.316;-6.294;2022-11-30T14:38:40;11.70;99.90
41720;DHT22;27405;53.316;-6.294;2022-11-30T14:41:21;11.70;99.90
41720;DHT22;27405;53.316;-6.294;2022-11-30T14:46:24;11.60;99.90
41720;DHT22;27405;53.316;-6.294;2022-11-30T14:49:06;11.60;99.90
41720;DHT22;27405;53.316;-6.294;2022-11-30T14:51:32;11.60;99.90
41720;DHT22;27405;53.316;-6.294;2022-11-30T14:54:16;11.50;99.90
41720;DHT22;27405;53.316;-6.294;2022-11-30T14:56:49;11.50;99.90
41720;DHT22;27405;53.316;-6.294;2022-11-30T15:02:00;11.40;99.90
41720;DHT22;27405;53.316;-6.294;2022-11-30T15:04:27;11.40;99.90
41720;DHT22;27405;53.316;-6.294;2022-11-30T15:06:54;11.40;99.90
41720;DHT22;27405;53.316;-6.294;2022-11-30T15:09:24;11.40;99.90
41720;DHT22;27405;53.316;-6.294;2022-11-30T15:11:51;11.30;99.90
41720;DHT22;27405;53.316;-6.294;2022-11-30T15:14:17;11.30;99.90
41720;DHT22;27405;53.316;-6.294;2022-11-30T15:17:01;11.30;99.90
41720;DHT22;27405;53.316;-6.294;2022-11-30T15:19:30;11.30;99.90
41720;DHT22;27405;53.316;-6.294;2022-11-30T15:21:57;11.30;99.90
41720;DHT22;27405;53.316;-6.294;2022-11-30T15:24:23;11.20;99.90
41720;DHT22;27405;53.316;-6.294;2022-11-30T15:27:03;11.20;99.90
41720;DHT22;27405;53.316;-6.294;2022-11-30T15:29:32;11.20;99.90
41720;DHT22;27405;53.316;-6.294;2022-11-30T15:32:00;11.20;99.90
41720;DHT22;27405;53.316;-6.294;2022-11-30T15:34:42;11.20;99.90
41720;DHT22;27405;53.316;-6.294;2022-11-30T15:37:08;11.20;99.90
41720;DHT22;27405;53.316;-6.294;2022-11-30T15:39:35;11.10;99.90
41720;DHT22;27405;53.316;-6.294;2022-11-30T15:42:03;11.20;99.90
41720;DHT22;27405;53.316;-6.294;2022-11-30T15:47:01;11.20;99.90
41720;DHT22;27405;53.316;-6.294;2022-11-30T15:49:28;11.20;99.90
41720;DHT22;27405;53.316;-6.294;2022-11-30T15:52:15;11.20;99.90
41720;DHT22;27405;53.316;-6.294;2022-11-30T15:57:17;11.10;99.90
41720;DHT22;27405;53.316;-6.294;2022-11-30T16:00:04;11.10;99.90
41720;DHT22;27405;53.316;-6.294;2022-11-30T16:02:33;11.10;99.90
41720;DHT22;27405;53.316;-6.294;2022-11-30T16:05:21;11.10;99.90
41720;DHT22;27405;53.316;-6.294;2022-11-30T16:07:55;11.00;99.90
41720;DHT22;27405;53.316;-6.294;2022-11-30T16:12:52;11.00;99.90
41720;DHT22;27405;53.316;-6.294;2022-11-30T16:15:21;11.00;99.90
41720;DHT22;27405;53.316;-6.294;2022-11-30T16:17:49;11.00;99.90
41720;DHT22;27405;53.316;-6.294;2022-11-30T16:20:15;11.00;99.90
41720;DHT22;27405;53.316;-6.294;2022-11-30T16:22:44;11.00;99.90
41720;DHT22;27405;53.316;-6.294;2022-11-30T16:25:23;11.00;99.90
41720;DHT22;27405;53.316;-6.294;2022-11-30T16:27:49;11.00;99.90
41720;DHT22;27405;53.316;-6.294;2022-11-30T16:30:20;11.00;99.90
41720;DHT22;27405;53.316;-6.294;2022-11-30T16:32:47;10.90;99.90
41720;DHT22;27405;53.316;-6.294;2022-11-30T16:35:20;10.90;99.90
41720;DHT22;27405;53.316;-6.294;2022-11-30T16:37:46;10.90;99.90
41720;DHT22;27405;53.316;-6.294;2022-11-30T16:40:12;10.90;99.90
41720;DHT22;27405;53.316;-6.294;2022-11-30T16:42:38;10.90;99.90
41720;DHT22;27405;53.316;-6.294;2022-11-30T16:45:04;10.90;99.90
41720;DHT22;27405;53.316;-6.294;2022-11-30T16:47:35;10.90;99.90
41720;DHT22;27405;53.316;-6.294;2022-11-30T16:50:01;10.90;99.90
41720;DHT22;27405;53.316;-6.294;2022-11-30T16:52:26;10.90;99.90
41720;DHT22;27405;53.316;-6.294;2022-11-30T16:54:52;10.90;99.90
41720;DHT22;27405;53.316;-6.294;2022-11-30T16:57:17;10.90;99.90
41720;DHT22;27405;53.316;-6.294;2022-11-30T16:59:43;10.90;99.90
41720;DHT22;27405;53.316;-6.294;2022-11-30T17:02:17;10.90;99.90
41720;DHT22;27405;53.316;-6.294;2022-11-30T17:04:44;10.90;99.90
41720;DHT22;27405;53.316;-6.294;2022-11-30T17:07:10;10.90;99.90
41720;DHT22;27405;53.316;-6.294;2022-11-30T17:09:35;10.90;99.90
41720;DHT22;27405;53.316;-6.294;2022-11-30T17:12:01;10.90;99.90
41720;DHT22;27405;53.316;-6.294;2022-11-30T17:14:27;10.90;99.90
41720;DHT22;27405;53.316;-6.294;2022-11-30T17:16:53;10.90;99.90
41720;DHT22;27405;53.316;-6.294;2022-11-30T17:19:19;10.90;99.90
41720;DHT22;27405;53.316;-6.294;2022-11-30T17:21:45;10.90;99.90
41720;DHT22;27405;53.316;-6.294;2022-11-30T17:24:12;10.90;99.90
41720;DHT22;27405;53.316;-6.294;2022-11-30T17:26:38;10.80;99.90
41720;DHT22;27405;53.316;-6.294;2022-11-30T17:29:04;10.80;99.90
41720;DHT22;27405;53.316;-6.294;2022-11-30T17:31:30;10.80;99.90
41720;DHT22;27405;53.316;-6.294;2022-11-30T17:33:56;10.90;99.90
41720;DHT22;27405;53.316;-6.294;2022-11-30T17:36:22;10.80;99.90
41720;DHT22;27405;53.316;-6.294;2022-11-30T17:38:48;10.90;99.90
41720;DHT22;27405;53.316;-6.294;2022-11-30T17:41:16;10.80;99.90
41720;DHT22;27405;53.316;-6.294;2022-11-30T17:43:42;10.80;99.90
41720;DHT22;27405;53.316;-6.294;2022-11-30T17:46:10;10.80;99.90
41720;DHT22;27405;53.316;-6.294;2022-11-30T17:48:37;10.80;99.90
41720;DHT22;27405;53.316;-6.294;2022-11-30T17:51:03;10.80;99.90
41720;DHT22;27405;53.316;-6.294;2022-11-30T17:53:29;10.80;99.90
41720;DHT22;27405;53.316;-6.294;2022-11-30T17:56:11;10.80;99.90
41720;DHT22;27405;53.316;-6.294;2022-11-30T17:58:39;10.80;99.90
41720;DHT22;27405;53.316;-6.294;2022-11-30T18:01:23;10.80;99.90
41720;DHT22;27405;53.316;-6.294;2022-11-30T18:03:49;10.80;99.90
41720;DHT22;27405;53.316;-6.294;2022-11-30T18:06:16;10.80;99.90
41720;DHT22;27405;53.316;-6.294;2022-11-30T18:08:42;10.80;99.90
41720;DHT22;27405;53.316;-6.294;2022-11-30T18:11:10;10.80;99.90
41720;DHT22;27405;53.316;-6.294;2022-11-30T18:13:37;10.80;99.90
41720;DHT22;27405;53.316;-6.294;2022-11-30T18:16:13;10.80;99.90
41720;DHT22;27405;53.316;-6.294;2022-11-30T18:18:39;10.80;99.90